sensor_id;sensor_type;location;lat;lon;timestamp;temperature;humidity
11246;DHT22;59870;50.106;8.580;2023-06-14T00:00:37;23.30;44.60
11246;DHT22;59870;50.106;8.580;2023-06-14T00:03:08;23.20;44.60
11246;DHT22;59870;50.106;8.580;2023-06-14T00:05:40;22.90;44.40
11246;DHT22;59870;50.106;8.580;2023-06-14T00:08:10;23.20;44.50
11246;DHT22;59870;50.106;8.580;2023-06-14T00:10:38;22.80;44.20
11246;DHT22;59870;50.106;8.580;2023-06-14T00:13:09;22.80;44.60
11246;DHT22;59870;50.106;8.580;2023-06-14T00:15:38;22.70;44.80
11246;DHT22;59870;50.106;8.580;2023-06-14T00:18:05;22.70;44.90
11246;DHT22;59870;50.106;8.580;2023-06-14T00:20:33;22.80;45.00
11246;DHT22;59870;50.106;8.580;2023-06-14T00:23:01;22.70;45.00
11246;DHT22;59870;50.106;8.580;2023-06-14T00:25:28;22.60;45.20
11246;DHT22;59870;50.106;8.580;2023-06-14T00:27:57;22.60;45.10
11246;DHT22;59870;50.106;8.580;2023-06-14T00:30:25;22.90;45.10
11246;DHT22;59870;50.106;8.580;2023-06-14T00:32:52;22.80;45.10
11246;DHT22;59870;50.106;8.580;2023-06-14T00:35:20;22.50;45.50
11246;DHT22;59870;50.106;8.580;2023-06-14T00:37:48;22.80;45.40
11246;DHT22;59870;50.106;8.580;2023-06-14T00:40:15;22.60;45.60
11246;DHT22;59870;50.106;8.580;2023-06-14T00:42:45;22.70;45.70
11246;DHT22;59870;50.106;8.580;2023-06-14T00:45:13;22.70;45.40
11246;DHT22;59870;50.106;8.580;2023-06-14T00:47:41;22.60;45.50
11246;DHT22;59870;50.106;8.580;2023-06-14T00:50:10;22.30;45.30
11246;DHT22;59870;50.106;8.580;2023-06-14T00:52:39;22.30;45.40
11246;DHT22;59870;50.106;8.580;2023-06-14T00:55:07;22.20;45.60
11246;DHT22;59870;50.106;8.580;2023-06-14T00:57:35;22.20;45.70
11246;DHT22;59870;50.106;8.580;2023-06-14T01:00:05;22.20;45.60
11246;DHT22;59870;50.106;8.580;2023-06-14T01:02:37;22.20;45.70
11246;DHT22;59870;50.106;8.580;2023-06-14T01:05:06;22.10;45.80
11246;DHT22;59870;50.106;8.580;2023-06-14T01:11:08;22.00;45.50
11246;DHT22;59870;50.106;8.580;2023-06-14T01:13:45;21.90;45.40
11246;DHT22;59870;50.106;8.580;2023-06-14T01:16:15;22.10;45.70
11246;DHT22;59870;50.106;8.580;2023-06-14T01:18:44;21.90;45.80
11246;DHT22;59870;50.106;8.580;2023-06-14T01:21:25;22.10;46.10
11246;DHT22;59870;50.106;8.580;2023-06-14T01:23:53;21.80;45.90
11246;DHT22;59870;50.106;8.580;2023-06-14T01:26:23;22.00;45.90
11246;DHT22;59870;50.106;8.580;2023-06-14T01:28:52;21.80;45.80
11246;DHT22;59870;50.106;8.580;2023-06-14T01:31:26;21.90;46.00
11246;DHT22;59870;50.106;8.580;2023-06-14T01:33:54;21.80;45.80
11246;DHT22;59870;50.106;8.580;2023-06-14T01:36:25;21.90;45.80
11246;DHT22;59870;50.106;8.580;2023-06-14T01:38:59;21.80;45.70
11246;DHT22;59870;50.106;8.580;2023-06-14T01:41:28;21.80;45.80
11246;DHT22;59870;50.106;8.580;2023-06-14T01:43:58;21.80;45.80
11246;DHT22;59870;50.106;8.580;2023-06-14T01:46:27;21.50;46.00
11246;DHT22;59870;50.106;8.580;2023-06-14T01:48:55;21.40;45.80
11246;DHT22;59870;50.106;8.580;2023-06-14T01:51:22;21.40;46.00
11246;DHT22;59870;50.106;8.580;2023-06-14T01:53:50;21.40;46.10
11246;DHT22;59870;50.106;8.580;2023-06-14T01:56:17;21.40;46.20
11246;DHT22;59870;50.106;8.580;2023-06-14T01:58:48;21.50;46.40
11246;DHT22;59870;50.106;8.580;2023-06-14T02:01:16;21.50;46.60
11246;DHT22;59870;50.106;8.580;2023-06-14T02:03:45;21.50;46.60
11246;DHT22;59870;50.106;8.580;2023-06-14T02:06:15;21.50;46.80
11246;DHT22;59870;50.106;8.580;2023-06-14T02:08:44;21.10;46.50
11246;DHT22;59870;50.106;8.580;2023-06-14T02:11:12;21.40;47.00
11246;DHT22;59870;50.106;8.580;2023-06-14T02:13:39;21.40;47.10
11246;DHT22;59870;50.106;8.580;2023-06-14T02:16:07;21.30;47.40
11246;DHT22;59870;50.106;8.580;2023-06-14T02:18:36;21.20;47.40
11246;DHT22;59870;50.106;8.580;2023-06-14T02:21:03;20.90;47.40
11246;DHT22;59870;50.106;8.580;2023-06-14T02:23:31;20.90;47.40
11246;DHT22;59870;50.106;8.580;2023-06-14T02:26:02;20.90;47.60
11246;DHT22;59870;50.106;8.580;2023-06-14T02:28:30;20.80;47.60
11246;DHT22;59870;50.106;8.580;2023-06-14T02:30:57;20.80;47.50
11246;DHT22;59870;50.106;8.580;2023-06-14T02:33:25;20.80;47.90
11246;DHT22;59870;50.106;8.580;2023-06-14T02:35:53;20.70;47.90
11246;DHT22;59870;50.106;8.580;2023-06-14T02:38:20;20.60;48.10
11246;DHT22;59870;50.106;8.580;2023-06-14T02:40:48;20.60;48.20
11246;DHT22;59870;50.106;8.580;2023-06-14T02:43:15;20.80;48.40
11246;DHT22;59870;50.106;8.580;2023-06-14T02:45:44;20.70;48.60
11246;DHT22;59870;50.106;8.580;2023-06-14T02:48:14;20.50;48.50
11246;DHT22;59870;50.106;8.580;2023-06-14T02:50:41;20.50;48.60
11246;DHT22;59870;50.106;8.580;2023-06-14T02:53:09;20.80;48.90
11246;DHT22;59870;50.106;8.580;2023-06-14T02:55:36;20.50;48.80
11246;DHT22;59870;50.106;8.580;2023-06-14T02:58:07;20.50;48.70
11246;DHT22;59870;50.106;8.580;2023-06-14T03:00:35;20.40;48.70
11246;DHT22;59870;50.106;8.580;2023-06-14T03:03:03;20.60;48.80
11246;DHT22;59870;50.106;8.580;2023-06-14T03:05:33;20.60;48.80
11246;DHT22;59870;50.106;8.580;2023-06-14T03:08:00;20.50;48.80
11246;DHT22;59870;50.106;8.580;2023-06-14T03:10:28;20.40;48.80
11246;DHT22;59870;50.106;8.580;2023-06-14T03:12:57;20.40;48.90
11246;DHT22;59870;50.106;8.580;2023-06-14T03:15:25;20.40;49.00
11246;DHT22;59870;50.106;8.580;2023-06-14T03:17:54;20.40;49.20
11246;DHT22;59870;50.106;8.580;2023-06-14T03:20:22;20.30;49.10
11246;DHT22;59870;50.106;8.580;2023-06-14T03:22:53;20.30;49.30
11246;DHT22;59870;50.106;8.580;2023-06-14T03:25:21;20.20;49.30
11246;DHT22;59870;50.106;8.580;2023-06-14T03:27:53;20.20;49.40
11246;DHT22;59870;50.106;8.580;2023-06-14T03:30:21;20.20;49.50
11246;DHT22;59870;50.106;8.580;2023-06-14T03:32:50;20.20;49.80
11246;DHT22;59870;50.106;8.580;2023-06-14T03:35:20;20.00;49.70
11246;DHT22;59870;50.106;8.580;2023-06-14T03:37:48;20.00;49.80
11246;DHT22;59870;50.106;8.580;2023-06-14T03:40:18;20.10;50.10
11246;DHT22;59870;50.106;8.580;2023-06-14T03:42:56;19.90;50.00
11246;DHT22;59870;50.106;8.580;2023-06-14T03:45:23;19.90;50.20
11246;DHT22;59870;50.106;8.580;2023-06-14T03:47:51;20.20;50.70
11246;DHT22;59870;50.106;8.580;2023-06-14T03:50:19;19.80;50.50
11246;DHT22;59870;50.106;8.580;2023-06-14T03:52:48;20.00;50.90
11246;DHT22;59870;50.106;8.580;2023-06-14T03:55:17;19.90;51.00
11246;DHT22;59870;50.106;8.580;2023-06-14T03:57:47;19.60;50.80
11246;DHT22;59870;50.106;8.580;2023-06-14T04:00:17;19.60;50.80
11246;DHT22;59870;50.106;8.580;2023-06-14T04:02:49;19.60;50.90
11246;DHT22;59870;50.106;8.580;2023-06-14T04:05:18;19.70;51.10
11246;DHT22;59870;50.106;8.580;2023-06-14T04:07:48;19.50;51.20
11246;DHT22;59870;50.106;8.580;2023-06-14T04:10:18;19.50;51.30
11246;DHT22;59870;50.106;8.580;2023-06-14T04:12:47;19.90;51.70
11246;DHT22;59870;50.106;8.580;2023-06-14T04:15:15;19.50;51.50
11246;DHT22;59870;50.106;8.580;2023-06-14T04:17:48;19.80;51.60
11246;DHT22;59870;50.106;8.580;2023-06-14T04:20:16;19.50;51.60
11246;DHT22;59870;50.106;8.580;2023-06-14T04:22:44;19.70;52.00
11246;DHT22;59870;50.106;8.580;2023-06-14T04:25:12;19.40;51.80
11246;DHT22;59870;50.106;8.580;2023-06-14T04:27:42;19.50;51.90
11246;DHT22;59870;50.106;8.580;2023-06-14T04:30:11;19.50;52.00
11246;DHT22;59870;50.106;8.580;2023-06-14T04:32:45;19.50;51.80
11246;DHT22;59870;50.106;8.580;2023-06-14T04:35:13;19.50;51.90
11246;DHT22;59870;50.106;8.580;2023-06-14T04:37:44;19.60;52.20
11246;DHT22;59870;50.106;8.580;2023-06-14T04:40:12;19.60;52.20
11246;DHT22;59870;50.106;8.580;2023-06-14T04:42:41;19.30;51.60
11246;DHT22;59870;50.106;8.580;2023-06-14T04:45:14;19.60;52.00
11246;DHT22;59870;50.106;8.580;2023-06-14T04:47:44;19.60;52.10
11246;DHT22;59870;50.106;8.580;2023-06-14T04:50:13;19.80;52.50
11246;DHT22;59870;50.106;8.580;2023-06-14T04:52:43;19.70;52.30
11246;DHT22;59870;50.106;8.580;2023-06-14T04:55:11;19.60;52.20
11246;DHT22;59870;50.106;8.580;2023-06-14T04:57:38;19.60;52.30
11246;DHT22;59870;50.106;8.580;2023-06-14T05:00:08;19.70;52.30
11246;DHT22;59870;50.106;8.580;2023-06-14T05:02:39;19.80;52.20
11246;DHT22;59870;50.106;8.580;2023-06-14T05:05:19;20.10;52.10
11246;DHT22;59870;50.106;8.580;2023-06-14T05:39:20;21.30;50.90
11246;DHT22;59870;50.106;8.580;2023-06-14T05:41:47;21.60;50.50
11246;DHT22;59870;50.106;8.580;2023-06-14T05:44:17;21.90;50.10
11246;DHT22;59870;50.106;8.580;2023-06-14T05:46:44;21.90;49.40
11246;DHT22;59870;50.106;8.580;2023-06-14T05:49:12;22.20;49.10
11246;DHT22;59870;50.106;8.580;2023-06-14T05:51:40;22.40;49.20
11246;DHT22;59870;50.106;8.580;2023-06-14T05:54:09;22.60;48.30
11246;DHT22;59870;50.106;8.580;2023-06-14T05:56:37;23.00;48.40
11246;DHT22;59870;50.106;8.580;2023-06-14T05:59:04;22.80;48.10
11246;DHT22;59870;50.106;8.580;2023-06-14T06:01:32;23.00;47.80
11246;DHT22;59870;50.106;8.580;2023-06-14T06:04:01;23.10;48.10
11246;DHT22;59870;50.106;8.580;2023-06-14T06:06:29;23.20;47.30
11246;DHT22;59870;50.106;8.580;2023-06-14T06:08:57;23.30;47.20
11246;DHT22;59870;50.106;8.580;2023-06-14T06:11:29;23.00;47.70
11246;DHT22;59870;50.106;8.580;2023-06-14T06:14:14;22.80;47.80
11246;DHT22;59870;50.106;8.580;2023-06-14T06:16:43;22.90;48.00
11246;DHT22;59870;50.106;8.580;2023-06-14T06:19:11;22.70;47.80
11246;DHT22;59870;50.106;8.580;2023-06-14T06:21:39;23.00;48.20
11246;DHT22;59870;50.106;8.580;2023-06-14T06:24:08;22.60;48.30
11246;DHT22;59870;50.106;8.580;2023-06-14T06:27:07;22.90;48.20
11246;DHT22;59870;50.106;8.580;2023-06-14T06:29:38;22.00;48.30
11246;DHT22;59870;50.106;8.580;2023-06-14T06:32:06;22.90;48.40
11246;DHT22;59870;50.106;8.580;2023-06-14T06:34:35;22.60;48.60
11246;DHT22;59870;50.106;8.580;2023-06-14T06:37:05;23.00;49.00
11246;DHT22;59870;50.106;8.580;2023-06-14T06:39:33;22.10;48.20
11246;DHT22;59870;50.106;8.580;2023-06-14T06:42:01;23.00;49.00
11246;DHT22;59870;50.106;8.580;2023-06-14T06:44:40;22.80;48.70
11246;DHT22;59870;50.106;8.580;2023-06-14T06:47:08;22.80;48.40
11246;DHT22;59870;50.106;8.580;2023-06-14T06:49:37;23.40;49.10
11246;DHT22;59870;50.106;8.580;2023-06-14T06:52:06;23.00;47.90
11246;DHT22;59870;50.106;8.580;2023-06-14T06:54:34;23.00;48.30
11246;DHT22;59870;50.106;8.580;2023-06-14T06:57:02;23.40;49.10
11246;DHT22;59870;50.106;8.580;2023-06-14T06:59:29;23.20;48.40
11246;DHT22;59870;50.106;8.580;2023-06-14T07:01:57;23.30;47.90
11246;DHT22;59870;50.106;8.580;2023-06-14T07:04:25;23.30;48.00
11246;DHT22;59870;50.106;8.580;2023-06-14T07:06:52;23.40;48.70
11246;DHT22;59870;50.106;8.580;2023-06-14T07:09:21;24.00;48.40
11246;DHT22;59870;50.106;8.580;2023-06-14T07:11:50;24.00;48.30
11246;DHT22;59870;50.106;8.580;2023-06-14T07:14:17;24.20;48.40
11246;DHT22;59870;50.106;8.580;2023-06-14T07:16:45;24.30;47.90
11246;DHT22;59870;50.106;8.580;2023-06-14T07:19:27;24.30;48.30
11246;DHT22;59870;50.106;8.580;2023-06-14T07:21:55;24.40;47.90
11246;DHT22;59870;50.106;8.580;2023-06-14T07:24:23;24.10;47.30
11246;DHT22;59870;50.106;8.580;2023-06-14T07:26:50;24.40;47.50
11246;DHT22;59870;50.106;8.580;2023-06-14T07:29:19;24.10;47.80
11246;DHT22;59870;50.106;8.580;2023-06-14T07:31:47;24.30;48.60
11246;DHT22;59870;50.106;8.580;2023-06-14T07:34:17;24.40;48.40
11246;DHT22;59870;50.106;8.580;2023-06-14T07:36:54;24.10;47.80
11246;DHT22;59870;50.106;8.580;2023-06-14T07:39:21;24.30;47.10
11246;DHT22;59870;50.106;8.580;2023-06-14T07:41:49;24.50;46.90
11246;DHT22;59870;50.106;8.580;2023-06-14T07:44:17;24.60;46.20
11246;DHT22;59870;50.106;8.580;2023-06-14T07:46:44;24.60;45.90
11246;DHT22;59870;50.106;8.580;2023-06-14T07:49:13;24.60;46.00
11246;DHT22;59870;50.106;8.580;2023-06-14T07:51:41;24.60;46.00
11246;DHT22;59870;50.106;8.580;2023-06-14T07:54:08;24.70;46.00
11246;DHT22;59870;50.106;8.580;2023-06-14T07:56:36;24.80;45.80
11246;DHT22;59870;50.106;8.580;2023-06-14T07:59:03;24.90;45.00
11246;DHT22;59870;50.106;8.580;2023-06-14T08:01:34;25.10;45.70
11246;DHT22;59870;50.106;8.580;2023-06-14T08:04:01;25.30;46.30
11246;DHT22;59870;50.106;8.580;2023-06-14T08:06:29;25.50;46.00
11246;DHT22;59870;50.106;8.580;2023-06-14T08:08:57;25.60;45.00
11246;DHT22;59870;50.106;8.580;2023-06-14T08:11:25;25.60;45.40
11246;DHT22;59870;50.106;8.580;2023-06-14T08:13:52;25.80;45.20
11246;DHT22;59870;50.106;8.580;2023-06-14T08:16:20;25.80;44.30
11246;DHT22;59870;50.106;8.580;2023-06-14T08:18:48;25.80;44.50
11246;DHT22;59870;50.106;8.580;2023-06-14T08:21:16;25.80;44.90
11246;DHT22;59870;50.106;8.580;2023-06-14T08:23:44;25.90;44.50
11246;DHT22;59870;50.106;8.580;2023-06-14T08:26:12;25.90;44.60
11246;DHT22;59870;50.106;8.580;2023-06-14T08:28:39;25.80;44.60
11246;DHT22;59870;50.106;8.580;2023-06-14T08:31:08;25.80;43.90
11246;DHT22;59870;50.106;8.580;2023-06-14T08:33:36;25.80;44.30
11246;DHT22;59870;50.106;8.580;2023-06-14T08:36:04;25.80;43.40
11246;DHT22;59870;50.106;8.580;2023-06-14T08:38:31;25.80;44.10
11246;DHT22;59870;50.106;8.580;2023-06-14T08:41:01;26.00;42.80
11246;DHT22;59870;50.106;8.580;2023-06-14T08:43:29;25.90;43.20
11246;DHT22;59870;50.106;8.580;2023-06-14T08:46:00;26.10;42.70
11246;DHT22;59870;50.106;8.580;2023-06-14T08:48:27;26.20;41.90
11246;DHT22;59870;50.106;8.580;2023-06-14T08:50:56;26.30;42.10
11246;DHT22;59870;50.106;8.580;2023-06-14T08:53:31;26.20;41.90
11246;DHT22;59870;50.106;8.580;2023-06-14T08:56:02;26.30;41.30
11246;DHT22;59870;50.106;8.580;2023-06-14T08:58:32;26.50;41.80
11246;DHT22;59870;50.106;8.580;2023-06-14T09:01:02;26.70;41.30
11246;DHT22;59870;50.106;8.580;2023-06-14T09:03:29;27.50;40.90
11246;DHT22;59870;50.106;8.580;2023-06-14T09:05:58;27.60;40.80
11246;DHT22;59870;50.106;8.580;2023-06-14T09:08:27;27.80;39.70
11246;DHT22;59870;50.106;8.580;2023-06-14T09:10:57;27.40;39.30
11246;DHT22;59870;50.106;8.580;2023-06-14T09:13:26;28.10;40.30
11246;DHT22;59870;50.106;8.580;2023-06-14T09:15:58;28.00;39.90
11246;DHT22;59870;50.106;8.580;2023-06-14T09:18:42;28.10;39.00
11246;DHT22;59870;50.106;8.580;2023-06-14T09:21:16;28.30;38.60
11246;DHT22;59870;50.106;8.580;2023-06-14T09:23:47;28.40;38.00
11246;DHT22;59870;50.106;8.580;2023-06-14T09:26:19;28.50;38.50
11246;DHT22;59870;50.106;8.580;2023-06-14T09:29:19;29.30;38.20
11246;DHT22;59870;50.106;8.580;2023-06-14T09:36:01;29.00;37.80
11246;DHT22;59870;50.106;8.580;2023-06-14T09:38:34;29.20;36.40
11246;DHT22;59870;50.106;8.580;2023-06-14T09:41:05;29.10;36.60
11246;DHT22;59870;50.106;8.580;2023-06-14T09:43:34;29.10;36.70
11246;DHT22;59870;50.106;8.580;2023-06-14T09:46:06;29.00;36.30
11246;DHT22;59870;50.106;8.580;2023-06-14T09:48:36;28.90;36.90
11246;DHT22;59870;50.106;8.580;2023-06-14T09:51:05;28.50;36.80
11246;DHT22;59870;50.106;8.580;2023-06-14T09:53:35;28.40;37.20
11246;DHT22;59870;50.106;8.580;2023-06-14T09:56:05;28.10;37.80
11246;DHT22;59870;50.106;8.580;2023-06-14T09:58:35;28.10;38.40
11246;DHT22;59870;50.106;8.580;2023-06-14T10:01:08;28.10;37.70
11246;DHT22;59870;50.106;8.580;2023-06-14T10:03:47;28.10;38.70
11246;DHT22;59870;50.106;8.580;2023-06-14T10:09:56;28.10;38.30
11246;DHT22;59870;50.106;8.580;2023-06-14T10:12:34;27.90;38.00
11246;DHT22;59870;50.106;8.580;2023-06-14T10:15:05;27.80;38.30
11246;DHT22;59870;50.106;8.580;2023-06-14T10:20:55;27.40;38.50
11246;DHT22;59870;50.106;8.580;2023-06-14T10:23:33;27.30;38.00
11246;DHT22;59870;50.106;8.580;2023-06-14T10:26:34;27.30;37.90
11246;DHT22;59870;50.106;8.580;2023-06-14T10:33:07;27.30;38.70
11246;DHT22;59870;50.106;8.580;2023-06-14T10:35:35;27.40;39.70
11246;DHT22;59870;50.106;8.580;2023-06-14T10:38:12;27.30;40.10
11246;DHT22;59870;50.106;8.580;2023-06-14T10:40:40;27.30;40.30
11246;DHT22;59870;50.106;8.580;2023-06-14T10:43:23;27.80;40.00
11246;DHT22;59870;50.106;8.580;2023-06-14T10:46:18;27.40;39.70
11246;DHT22;59870;50.106;8.580;2023-06-14T10:48:49;27.30;40.00
11246;DHT22;59870;50.106;8.580;2023-06-14T10:51:24;27.80;40.60
11246;DHT22;59870;50.106;8.580;2023-06-14T10:53:51;27.20;39.60
11246;DHT22;59870;50.106;8.580;2023-06-14T10:56:32;27.70;40.60
11246;DHT22;59870;50.106;8.580;2023-06-14T10:59:00;27.20;40.40
11246;DHT22;59870;50.106;8.580;2023-06-14T11:01:41;27.70;41.30
11246;DHT22;59870;50.106;8.580;2023-06-14T11:04:20;27.30;40.40
11246;DHT22;59870;50.106;8.580;2023-06-14T11:06:49;27.50;39.40
11246;DHT22;59870;50.106;8.580;2023-06-14T11:12:03;27.50;39.30
11246;DHT22;59870;50.106;8.580;2023-06-14T11:14:31;27.40;39.90
11246;DHT22;59870;50.106;8.580;2023-06-14T11:16:58;27.40;39.70
11246;DHT22;59870;50.106;8.580;2023-06-14T11:19:26;27.40;40.20
11246;DHT22;59870;50.106;8.580;2023-06-14T11:21:56;27.30;39.70
11246;DHT22;59870;50.106;8.580;2023-06-14T11:24:23;27.60;40.00
11246;DHT22;59870;50.106;8.580;2023-06-14T11:26:51;27.20;39.60
11246;DHT22;59870;50.106;8.580;2023-06-14T11:29:20;27.30;39.20
11246;DHT22;59870;50.106;8.580;2023-06-14T11:31:47;27.40;38.90
11246;DHT22;59870;50.106;8.580;2023-06-14T11:34:15;27.50;38.90
11246;DHT22;59870;50.106;8.580;2023-06-14T11:36:42;27.50;39.20
11246;DHT22;59870;50.106;8.580;2023-06-14T11:39:10;27.50;40.40
11246;DHT22;59870;50.106;8.580;2023-06-14T11:41:40;27.70;39.40
11246;DHT22;59870;50.106;8.580;2023-06-14T11:44:08;27.60;38.80
11246;DHT22;59870;50.106;8.580;2023-06-14T11:46:36;27.40;39.40
11246;DHT22;59870;50.106;8.580;2023-06-14T11:49:04;28.00;39.90
11246;DHT22;59870;50.106;8.580;2023-06-14T11:51:34;27.80;39.50
11246;DHT22;59870;50.106;8.580;2023-06-14T11:54:03;27.90;38.90
11246;DHT22;59870;50.106;8.580;2023-06-14T11:56:31;27.60;38.70
11246;DHT22;59870;50.106;8.580;2023-06-14T11:59:01;27.50;38.50
11246;DHT22;59870;50.106;8.580;2023-06-14T12:01:30;27.40;38.20
11246;DHT22;59870;50.106;8.580;2023-06-14T12:03:59;27.40;38.90
11246;DHT22;59870;50.106;8.580;2023-06-14T12:06:29;27.40;38.80
11246;DHT22;59870;50.106;8.580;2023-06-14T12:09:03;27.40;38.50
11246;DHT22;59870;50.106;8.580;2023-06-14T12:11:34;27.40;37.80
11246;DHT22;59870;50.106;8.580;2023-06-14T12:14:06;27.50;38.40
11246;DHT22;59870;50.106;8.580;2023-06-14T12:16:34;27.70;37.50
11246;DHT22;59870;50.106;8.580;2023-06-14T12:19:11;27.50;38.70
11246;DHT22;59870;50.106;8.580;2023-06-14T12:21:39;28.00;38.30
11246;DHT22;59870;50.106;8.580;2023-06-14T12:24:12;27.60;38.40
11246;DHT22;59870;50.106;8.580;2023-06-14T12:26:41;27.90;37.80
11246;DHT22;59870;50.106;8.580;2023-06-14T12:29:09;27.50;36.90
11246;DHT22;59870;50.106;8.580;2023-06-14T12:31:38;27.50;37.60
11246;DHT22;59870;50.106;8.580;2023-06-14T12:34:07;27.60;37.20
11246;DHT22;59870;50.106;8.580;2023-06-14T12:36:34;27.60;37.50
11246;DHT22;59870;50.106;8.580;2023-06-14T12:39:08;27.60;37.10
11246;DHT22;59870;50.106;8.580;2023-06-14T12:41:36;27.50;38.00
11246;DHT22;59870;50.106;8.580;2023-06-14T12:44:13;27.80;38.00
11246;DHT22;59870;50.106;8.580;2023-06-14T12:46:44;27.10;37.70
11246;DHT22;59870;50.106;8.580;2023-06-14T12:49:12;27.10;38.20
11246;DHT22;59870;50.106;8.580;2023-06-14T12:51:41;27.10;37.50
11246;DHT22;59870;50.106;8.580;2023-06-14T12:54:09;27.50;37.80
11246;DHT22;59870;50.106;8.580;2023-06-14T12:56:36;27.20;38.10
11246;DHT22;59870;50.106;8.580;2023-06-14T12:59:04;27.40;38.20
11246;DHT22;59870;50.106;8.580;2023-06-14T13:01:31;27.50;37.00
11246;DHT22;59870;50.106;8.580;2023-06-14T13:03:59;27.50;37.90
11246;DHT22;59870;50.106;8.580;2023-06-14T13:06:26;28.00;37.90
11246;DHT22;59870;50.106;8.580;2023-06-14T13:08:55;27.90;37.50
11246;DHT22;59870;50.106;8.580;2023-06-14T13:11:25;27.50;37.70
11246;DHT22;59870;50.106;8.580;2023-06-14T13:13:53;27.50;37.70
11246;DHT22;59870;50.106;8.580;2023-06-14T13:16:20;27.40;37.10
11246;DHT22;59870;50.106;8.580;2023-06-14T13:18:47;27.30;36.40
11246;DHT22;59870;50.106;8.580;2023-06-14T13:21:15;27.30;38.70
11246;DHT22;59870;50.106;8.580;2023-06-14T13:23:42;27.90;37.40
11246;DHT22;59870;50.106;8.580;2023-06-14T13:26:10;27.30;37.70
11246;DHT22;59870;50.106;8.580;2023-06-14T13:28:37;27.10;37.70
11246;DHT22;59870;50.106;8.580;2023-06-14T13:31:05;27.00;38.20
11246;DHT22;59870;50.106;8.580;2023-06-14T13:33:32;27.00;37.90
11246;DHT22;59870;50.106;8.580;2023-06-14T13:36:00;27.00;37.90
11246;DHT22;59870;50.106;8.580;2023-06-14T13:38:28;27.00;37.60
11246;DHT22;59870;50.106;8.580;2023-06-14T13:40:56;27.00;37.20
11246;DHT22;59870;50.106;8.580;2023-06-14T13:43:24;27.00;37.70
11246;DHT22;59870;50.106;8.580;2023-06-14T13:45:51;27.00;37.10
11246;DHT22;59870;50.106;8.580;2023-06-14T13:48:19;27.00;37.70
11246;DHT22;59870;50.106;8.580;2023-06-14T13:50:46;27.00;37.70
11246;DHT22;59870;50.106;8.580;2023-06-14T13:53:15;27.00;36.50
11246;DHT22;59870;50.106;8.580;2023-06-14T13:55:42;27.10;36.70
11246;DHT22;59870;50.106;8.580;2023-06-14T13:58:10;27.10;36.70
11246;DHT22;59870;50.106;8.580;2023-06-14T14:00:37;27.10;36.30
11246;DHT22;59870;50.106;8.580;2023-06-14T14:03:07;27.10;36.40
11246;DHT22;59870;50.106;8.580;2023-06-14T14:05:36;27.20;37.20
11246;DHT22;59870;50.106;8.580;2023-06-14T14:08:03;27.10;37.50
11246;DHT22;59870;50.106;8.580;2023-06-14T14:10:31;27.20;37.20
11246;DHT22;59870;50.106;8.580;2023-06-14T14:12:58;27.30;38.20
11246;DHT22;59870;50.106;8.580;2023-06-14T14:15:27;28.00;37.00
11246;DHT22;59870;50.106;8.580;2023-06-14T14:17:55;27.50;38.10
11246;DHT22;59870;50.106;8.580;2023-06-14T14:20:24;27.40;38.20
11246;DHT22;59870;50.106;8.580;2023-06-14T14:22:52;27.30;38.60
11246;DHT22;59870;50.106;8.580;2023-06-14T14:25:20;27.10;38.50
11246;DHT22;59870;50.106;8.580;2023-06-14T14:27:47;27.00;38.20
11246;DHT22;59870;50.106;8.580;2023-06-14T14:30:14;27.00;38.20
11246;DHT22;59870;50.106;8.580;2023-06-14T14:32:44;27.00;37.90
11246;DHT22;59870;50.106;8.580;2023-06-14T14:35:12;26.90;38.60
11246;DHT22;59870;50.106;8.580;2023-06-14T14:37:39;26.90;37.60
11246;DHT22;59870;50.106;8.580;2023-06-14T14:40:07;27.00;38.10
11246;DHT22;59870;50.106;8.580;2023-06-14T14:42:37;26.90;38.10
11246;DHT22;59870;50.106;8.580;2023-06-14T14:45:05;27.40;38.30
11246;DHT22;59870;50.106;8.580;2023-06-14T14:47:32;27.00;38.90
11246;DHT22;59870;50.106;8.580;2023-06-14T14:50:00;27.60;38.60
11246;DHT22;59870;50.106;8.580;2023-06-14T14:52:28;27.10;38.50
11246;DHT22;59870;50.106;8.580;2023-06-14T14:54:56;27.10;38.40
11246;DHT22;59870;50.106;8.580;2023-06-14T14:57:23;27.60;39.00
11246;DHT22;59870;50.106;8.580;2023-06-14T14:59:51;27.00;38.70
11246;DHT22;59870;50.106;8.580;2023-06-14T15:02:18;27.00;39.10
11246;DHT22;59870;50.106;8.580;2023-06-14T15:04:50;27.50;39.00
11246;DHT22;59870;50.106;8.580;2023-06-14T15:07:19;27.20;39.80
11246;DHT22;59870;50.106;8.580;2023-06-14T15:09:47;27.30;39.80
11246;DHT22;59870;50.106;8.580;2023-06-14T15:12:17;27.50;39.20
11246;DHT22;59870;50.106;8.580;2023-06-14T15:14:47;27.50;39.30
11246;DHT22;59870;50.106;8.580;2023-06-14T15:17:14;27.00;38.50
11246;DHT22;59870;50.106;8.580;2023-06-14T15:19:42;27.50;38.60
11246;DHT22;59870;50.106;8.580;2023-06-14T15:22:10;27.50;39.10
11246;DHT22;59870;50.106;8.580;2023-06-14T15:24:37;27.10;38.90
11246;DHT22;59870;50.106;8.580;2023-06-14T15:27:11;27.20;38.90
11246;DHT22;59870;50.106;8.580;2023-06-14T15:29:41;27.20;39.30
11246;DHT22;59870;50.106;8.580;2023-06-14T15:32:09;27.40;38.80
11246;DHT22;59870;50.106;8.580;2023-06-14T15:34:37;27.60;38.20
11246;DHT22;59870;50.106;8.580;2023-06-14T15:37:07;27.40;38.60
11246;DHT22;59870;50.106;8.580;2023-06-14T15:39:34;27.60;37.80
11246;DHT22;59870;50.106;8.580;2023-06-14T15:42:03;27.30;38.20
11246;DHT22;59870;50.106;8.580;2023-06-14T15:44:30;27.30;37.90
11246;DHT22;59870;50.106;8.580;2023-06-14T15:46:58;27.30;38.30
11246;DHT22;59870;50.106;8.580;2023-06-14T15:49:25;27.30;38.50
11246;DHT22;59870;50.106;8.580;2023-06-14T15:51:53;27.20;39.20
11246;DHT22;59870;50.106;8.580;2023-06-14T15:54:20;27.10;39.90
11246;DHT22;59870;50.106;8.580;2023-06-14T15:56:49;27.00;40.00
11246;DHT22;59870;50.106;8.580;2023-06-14T15:59:17;27.00;40.00
11246;DHT22;59870;50.106;8.580;2023-06-14T16:01:44;26.90;40.40
11246;DHT22;59870;50.106;8.580;2023-06-14T16:04:12;26.80;40.60
11246;DHT22;59870;50.106;8.580;2023-06-14T16:06:40;26.80;40.30
11246;DHT22;59870;50.106;8.580;2023-06-14T16:09:08;27.20;40.50
11246;DHT22;59870;50.106;8.580;2023-06-14T16:11:35;27.00;39.80
11246;DHT22;59870;50.106;8.580;2023-06-14T16:14:02;27.60;40.60
11246;DHT22;59870;50.106;8.580;2023-06-14T16:16:31;27.10;39.60
11246;DHT22;59870;50.106;8.580;2023-06-14T16:18:58;27.10;38.70
11246;DHT22;59870;50.106;8.580;2023-06-14T16:21:26;27.20;38.10
11246;DHT22;59870;50.106;8.580;2023-06-14T16:23:54;27.20;37.70
11246;DHT22;59870;50.106;8.580;2023-06-14T16:26:21;27.70;38.20
11246;DHT22;59870;50.106;8.580;2023-06-14T16:28:49;27.30;38.10
11246;DHT22;59870;50.106;8.580;2023-06-14T16:31:17;27.30;37.70
11246;DHT22;59870;50.106;8.580;2023-06-14T16:33:47;27.80;38.50
11246;DHT22;59870;50.106;8.580;2023-06-14T16:36:17;27.20;38.60